Time;durP1;ratioP1;P1;durP2;ratioP2;P2;SDS_P1;SDS_P2;PMS_P1;PMS_P2;Temp;Humidity;BMP_temperature;BMP_pressure;BME280_temperature;BME280_humidity;BME280_pressure;Samples;Min_cycle;Max_cycle;Signal;HPM_P1;HPM_P2
2023/10/24 00:01:07;;;;;;;;;;;;;;;16.11;60.64;99512.19;6226868;22;20041;-90
2023/10/24 00:03:33;;;;;;;;;;;;;;;16.12;60.65;99511.88;6252672;22;20301;-90
2023/10/24 00:05:58;;;;;;;;;;;;;;;16.06;60.76;99514.97;6227115;22;20227;-90
2023/10/24 00:08:24;;;;;;;;;;;;;;;15.95;61.74;99507.03;6227176;22;19986;-90
2023/10/24 00:10:57;;;;;;;;;;;;;;;15.88;62.38;99501.19;6252123;22;19985;-90
2023/10/24 00:13:23;;;;;;;;;;;;;;;15.80;62.42;99496.47;6226868;22;19941;-90
2023/10/24 00:15:49;;;;;;;;;;;;;;;15.83;62.08;99495.84;6251886;22;19917;-90
2023/10/24 00:18:14;;;;;;;;;;;;;;;15.88;61.64;99487.63;6252450;22;19953;-91
2023/10/24 00:20:39;;;;;;;;;;;;;;;15.93;61.42;99487.50;6226847;22;20342;-90
2023/10/24 00:23:05;;;;;;;;;;;;;;;15.96;60.97;99492.34;6251834;22;19964;-89
2023/10/24 00:25:30;;;;;;;;;;;;;;;15.99;60.99;99490.13;6227309;22;19965;-90
2023/10/24 00:27:55;;;;;;;;;;;;;;;15.96;61.13;99491.56;6252305;22;19907;-89
2023/10/24 00:30:20;;;;;;;;;;;;;;;15.71;63.13;99479.25;6252846;22;19907;-89
2023/10/24 00:32:49;;;;;;;;;;;;;;;15.64;63.12;99481.53;6252357;22;19912;-89
2023/10/24 00:35:14;;;;;;;;;;;;;;;15.55;63.23;99482.22;6252778;22;19934;-92
2023/10/24 00:37:40;;;;;;;;;;;;;;;15.40;63.80;99479.78;6225805;22;19922;-91
2023/10/24 00:40:05;;;;;;;;;;;;;;;15.34;64.09;99483.69;6226173;22;19907;-90
2023/10/24 00:42:31;;;;;;;;;;;;;;;15.33;63.98;99476.63;6227481;22;19914;-89
2023/10/24 00:44:56;;;;;;;;;;;;;;;15.22;64.70;99480.63;6252004;22;19931;-89
2023/10/24 00:47:21;;;;;;;;;;;;;;;15.13;64.53;99481.31;6226918;22;19957;-89
2023/10/24 00:49:47;;;;;;;;;;;;;;;15.04;64.70;99476.84;6227308;22;19908;-90
2023/10/24 00:52:12;;;;;;;;;;;;;;;14.98;64.95;99483.44;6252132;22;20002;-89
2023/10/24 00:54:38;;;;;;;;;;;;;;;14.99;65.17;99483.16;6252328;22;19965;-90
2023/10/24 00:57:03;;;;;;;;;;;;;;;14.97;65.47;99479.94;6279506;22;20231;-90
2023/10/24 00:59:28;;;;;;;;;;;;;;;14.96;65.56;99475.59;6227305;22;19911;-90
2023/10/24 01:01:54;;;;;;;;;;;;;;;14.91;65.58;99481.09;6226386;22;19907;-90
2023/10/24 01:04:21;;;;;;;;;;;;;;;14.85;65.50;99485.00;6227525;22;19914;-91
2023/10/24 01:06:47;;;;;;;;;;;;;;;14.91;65.22;99483.81;6280653;22;19914;-90
2023/10/24 01:09:12;;;;;;;;;;;;;;;14.95;65.02;99487.56;6253272;22;19908;-91
2023/10/24 01:11:37;;;;;;;;;;;;;;;15.01;64.59;99478.25;6226727;22;19911;-91
2023/10/24 01:14:02;;;;;;;;;;;;;;;15.03;64.46;99481.47;6227539;22;20326;-91
2023/10/24 01:16:30;;;;;;;;;;;;;;;15.09;64.20;99480.28;6226998;22;19908;-91
2023/10/24 01:18:56;;;;;;;;;;;;;;;15.08;64.00;99473.22;6279489;22;19914;-91
2023/10/24 01:21:21;;;;;;;;;;;;;;;15.08;64.31;99470.53;6226660;22;20261;-91
2023/10/24 01:23:47;;;;;;;;;;;;;;;15.02;64.98;99477.13;6226362;22;19935;-92
2023/10/24 01:26:13;;;;;;;;;;;;;;;14.98;65.28;99469.88;6252312;22;20257;-91
2023/10/24 01:28:38;;;;;;;;;;;;;;;14.89;65.48;99480.59;6226065;22;19898;-91
2023/10/24 01:31:03;;;;;;;;;;;;;;;14.93;65.41;99477.00;6226132;22;20223;-92
2023/10/24 01:33:29;;;;;;;;;;;;;;;14.91;65.32;99478.38;6251912;22;19918;-91
2023/10/24 01:35:54;;;;;;;;;;;;;;;14.84;65.81;99476.06;6226537;22;19907;-90
2023/10/24 01:38:20;;;;;;;;;;;;;;;14.85;65.64;99482.28;6226246;22;19982;-91
2023/10/24 01:40:45;;;;;;;;;;;;;;;14.85;65.59;99485.00;6227214;22;19908;-91
2023/10/24 01:43:10;;;;;;;;;;;;;;;14.84;65.65;99476.06;6226683;22;19907;-91
2023/10/24 01:45:36;;;;;;;;;;;;;;;14.79;65.85;99480.75;6252483;22;19908;-91
2023/10/24 01:48:01;;;;;;;;;;;;;;;14.73;65.95;99478.13;6226748;22;19994;-91
2023/10/24 01:50:28;;;;;;;;;;;;;;;14.71;65.89;99479.50;6251072;22;20369;-90
2023/10/24 01:52:53;;;;;;;;;;;;;;;14.76;65.66;99476.72;6278118;22;19916;-91
2023/10/24 01:55:18;;;;;;;;;;;;;;;14.80;65.28;99475.03;6252602;22;19913;-91
2023/10/24 01:57:44;;;;;;;;;;;;;;;14.84;65.25;99475.25;6279665;22;20328;-91
2023/10/24 02:00:09;;;;;;;;;;;;;;;14.78;65.55;99479.16;6226632;22;19907;-91
2023/10/24 02:02:35;;;;;;;;;;;;;;;14.72;65.81;99473.78;6251067;22;19907;-90
2023/10/24 02:05:01;;;;;;;;;;;;;;;14.69;65.92;99466.25;6250998;22;19914;-91
2023/10/24 02:07:29;;;;;;;;;;;;;;;14.65;66.00;99476.06;6250942;22;19914;-91
2023/10/24 02:09:54;;;;;;;;;;;;;;;14.65;66.12;99476.06;6229753;22;19914;-90
2023/10/24 02:12:20;;;;;;;;;;;;;;;14.63;65.98;99480.97;6227474;22;20322;-91
2023/10/24 02:14:45;;;;;;;;;;;;;;;14.65;66.14;99475.25;6228064;22;19954;-92
2023/10/24 02:17:11;;;;;;;;;;;;;;;14.64;65.96;99479.06;6228745;22;19914;-90
2023/10/24 02:19:36;;;;;;;;;;;;;;;14.72;65.61;99476.50;6227699;22;19993;-90
2023/10/24 02:22:02;;;;;;;;;;;;;;;14.78;65.11;99474.53;6253328;22;19916;-90
2023/10/24 02:24:28;;;;;;;;;;;;;;;14.72;65.96;99473.78;6227636;22;19907;-90
2023/10/24 02:26:55;;;;;;;;;;;;;;;14.64;65.97;99476.34;6228214;22;20265;-89
2023/10/24 02:29:20;;;;;;;;;;;;;;;14.59;66.22;99471.81;6280860;22;19907;-90
2023/10/24 02:31:46;;;;;;;;;;;;;;;14.57;66.17;99482.13;6227449;22;19918;-90
2023/10/24 02:34:11;;;;;;;;;;;;;;;14.55;66.31;99477.00;6253009;22;20326;-89
2023/10/24 02:36:37;;;;;;;;;;;;;;;14.44;66.45;99480.91;6227901;22;19918;-90
2023/10/24 02:39:03;;;;;;;;;;;;;;;14.35;66.58;99482.66;6252712;22;19971;-89
2023/10/24 02:41:29;;;;;;;;;;;;;;;14.26;66.94;99487.13;6279869;22;19915;-90
2023/10/24 02:43:54;;;;;;;;;;;;;;;14.20;67.08;99491.78;6252980;22;20322;-90
2023/10/24 02:46:21;;;;;;;;;;;;;;;14.23;67.00;99485.78;6227779;22;20326;-90
2023/10/24 02:48:46;;;;;;;;;;;;;;;14.22;66.80;99483.38;6252717;22;19907;-90
2023/10/24 02:51:12;;;;;;;;;;;;;;;14.13;67.35;99494.84;6251785;22;19933;-90
2023/10/24 02:53:37;;;;;;;;;;;;;;;14.13;67.25;99489.44;6280273;22;19907;-90
2023/10/24 02:56:03;;;;;;;;;;;;;;;14.11;67.38;99483.50;6253693;22;19911;-90
2023/10/24 02:58:31;;;;;;;;;;;;;;;14.17;66.97;99488.84;6253618;22;19961;-90
2023/10/24 03:01:00;;;;;;;;;;;;;;;14.14;66.98;99492.94;6252881;22;20235;-90
2023/10/24 03:03:26;;;;;;;;;;;;;;;14.07;67.59;99484.34;6254083;22;19907;-90
2023/10/24 03:05:51;;;;;;;;;;;;;;;13.99;67.86;99485.81;6228200;22;19911;-90
2023/10/24 03:08:16;;;;;;;;;;;;;;;13.99;67.77;99483.09;6253852;22;19907;-90
2023/10/24 03:10:43;;;;;;;;;;;;;;;13.91;68.02;99486.44;6228043;22;19930;-90
2023/10/24 03:13:08;;;;;;;;;;;;;;;13.91;67.96;99487.25;6228130;22;19913;-89
2023/10/24 03:15:34;;;;;;;;;;;;;;;13.92;68.08;99488.88;6227448;22;19990;-90
2023/10/24 03:18:01;;;;;;;;;;;;;;;13.86;68.27;99487.31;6227476;22;19907;-90
2023/10/24 03:20:26;;;;;;;;;;;;;;;13.83;68.22;99487.88;6279620;22;19907;-88
2023/10/24 03:22:52;;;;;;;;;;;;;;;13.71;68.52;99488.25;6252725;22;19984;-89
2023/10/24 03:25:19;;;;;;;;;;;;;;;13.70;68.71;99483.16;6254833;22;19913;-90
2023/10/24 03:27:44;;;;;;;;;;;;;;;13.68;68.67;99491.53;6228800;22;19914;-90
2023/10/24 03:30:09;;;;;;;;;;;;;;;13.73;68.49;99485.25;6254244;22;19934;-90
2023/10/24 03:32:35;;;;;;;;;;;;;;;13.76;68.56;99490.13;6253122;22;19912;-90
2023/10/24 03:35:01;;;;;;;;;;;;;;;13.80;68.37;99490.34;6227663;22;19911;-89
2023/10/24 03:37:29;;;;;;;;;;;;;;;13.75;68.74;99489.28;6252400;22;19986;-89
2023/10/24 03:39:54;;;;;;;;;;;;;;;13.79;68.58;99486.03;6227909;22;19907;-89
2023/10/24 03:42:20;;;;;;;;;;;;;;;13.85;68.49;99488.38;6228061;22;19911;-90
2023/10/24 03:44:53;;;;;;;;;;;;;;;13.82;68.60;99488.16;6252727;22;19907;-91
2023/10/24 03:47:18;;;;;;;;;;;;;;;13.81;68.61;99481.94;6255778;22;19982;-90
2023/10/24 03:49:44;;;;;;;;;;;;;;;13.85;68.39;99488.38;6226992;22;19907;-90
2023/10/24 03:52:11;;;;;;;;;;;;;;;13.83;68.35;99487.06;6279136;22;19911;-90
2023/10/24 03:54:36;;;;;;;;;;;;;;;13.87;68.24;99488.91;6253042;22;19964;-90
2023/10/24 03:57:03;;;;;;;;;;;;;;;13.87;68.44;99488.09;6226827;22;19915;-90
2023/10/24 03:59:28;;;;;;;;;;;;;;;13.86;68.31;99495.44;6229380;22;19960;-89
2023/10/24 04:01:56;;;;;;;;;;;;;;;13.83;68.49;99498.69;6252944;22;19935;-90
2023/10/24 04:04:23;;;;;;;;;;;;;;;13.89;68.11;99497.56;6253189;22;19929;-90
2023/10/24 04:06:48;;;;;;;;;;;;;;;13.83;68.33;99492.47;6279651;22;19913;-90
2023/10/24 04:09:13;;;;;;;;;;;;;;;13.82;68.20;99491.69;6280348;22;19907;-90
2023/10/24 04:11:39;;;;;;;;;;;;;;;13.84;68.19;99496.78;6278402;22;19969;-91
2023/10/24 04:14:06;;;;;;;;;;;;;;;13.83;68.24;99493.28;6227492;22;19907;-91
2023/10/24 04:16:32;;;;;;;;;;;;;;;13.72;68.65;99498.00;6227695;22;19914;-89
2023/10/24 04:19:01;;;;;;;;;;;;;;;13.77;68.67;99489.00;6224685;22;20322;-89
2023/10/24 04:21:26;;;;;;;;;;;;;;;13.69;68.75;99503.16;6226386;22;19911;-89
2023/10/24 04:23:52;;;;;;;;;;;;;;;13.65;68.57;99502.94;6226297;22;19973;-90
2023/10/24 04:26:18;;;;;;;;;;;;;;;13.58;69.21;99499.75;6251191;22;19918;-90
2023/10/24 04:28:43;;;;;;;;;;;;;;;13.51;69.27;99505.50;6280478;22;19911;-89
2023/10/24 04:31:08;;;;;;;;;;;;;;;13.48;69.37;99508.75;6228035;22;19908;-92
2023/10/24 04:33:34;;;;;;;;;;;;;;;13.47;69.54;99519.91;6253003;22;20234;-89
2023/10/24 04:36:00;;;;;;;;;;;;;;;13.34;70.08;99518.63;6280393;22;19907;-89
2023/10/24 04:38:25;;;;;;;;;;;;;;;13.34;69.89;99524.03;6227471;22;19923;-90
2023/10/24 04:40:53;;;;;;;;;;;;;;;13.38;69.91;99516.97;6226852;22;19911;-90
2023/10/24 04:43:19;;;;;;;;;;;;;;;13.42;69.82;99528.84;6251562;22;19934;-90
2023/10/24 04:45:45;;;;;;;;;;;;;;;13.41;69.70;99532.66;6253675;22;19914;-91
2023/10/24 04:48:22;;;;;;;;;;;;;;;13.41;69.75;99537.25;6228161;22;20300;-91
2023/10/24 04:50:48;;;;;;;;;;;;;;;13.39;69.86;99534.81;6256618;22;19895;-94
2023/10/24 04:53:13;;;;;;;;;;;;;;;13.42;69.79;99536.94;6229678;22;20253;-91
2023/10/24 04:55:39;;;;;;;;;;;;;;;13.37;69.82;99539.72;6234670;22;19919;-90
2023/10/24 04:58:05;;;;;;;;;;;;;;;13.38;69.97;99541.31;6229625;22;20401;-90
2023/10/24 05:00:34;;;;;;;;;;;;;;;13.29;70.00;99548.44;6226677;22;19914;-91
2023/10/24 05:03:00;;;;;;;;;;;;;;;13.33;69.77;99552.97;6252282;22;19908;-93
2023/10/24 05:05:27;;;;;;;;;;;;;;;13.31;70.04;99554.34;6278385;22;20273;-91
2023/10/24 05:07:53;;;;;;;;;;;;;;;13.31;69.84;99557.88;6251714;22;20338;-91
2023/10/24 05:10:20;;;;;;;;;;;;;;;13.32;69.69;99561.38;6227814;22;19965;-90
2023/10/24 05:12:48;;;;;;;;;;;;;;;13.31;70.29;99565.19;6255609;22;19911;-90
2023/10/24 05:15:13;;;;;;;;;;;;;;;13.33;70.29;99568.41;6278566;22;19961;-91
2023/10/24 05:17:42;;;;;;;;;;;;;;;13.31;70.25;99576.00;6257493;22;19907;-91
2023/10/24 05:20:08;;;;;;;;;;;;;;;13.39;69.71;99577.28;6253449;22;19907;-91
2023/10/24 05:22:34;;;;;;;;;;;;;;;13.40;69.54;99584.31;6226731;22;19918;-92
2023/10/24 05:25:01;;;;;;;;;;;;;;;13.44;69.73;99588.06;6252276;22;19907;-90
2023/10/24 05:30:15;;;;;;;;;;;;;;;13.46;69.36;99591.28;6155836;23;19958;-91
2023/10/24 05:36:22;;;;;;;;;;;;;;;13.36;69.66;99613.00;6096262;23;19972;-93
2023/10/24 05:38:47;;;;;;;;;;;;;;;13.37;69.68;99620.84;6247188;22;19915;-91
2023/10/24 05:41:15;;;;;;;;;;;;;;;13.41;69.66;99623.81;6196632;23;20339;-92
2023/10/24 05:43:53;;;;;;;;;;;;;;;13.36;69.96;99619.22;6199533;23;20305;-93
2023/10/24 05:49:08;;;;;;;;;;;;;;;13.28;70.62;99620.59;6230178;23;19908;-93
2023/10/24 05:51:41;;;;;;;;;;;;;;;13.34;70.28;99626.81;6200795;23;19948;-92
2023/10/24 05:54:07;;;;;;;;;;;;;;;13.45;69.89;99622.16;6213675;23;19916;-94
2023/10/24 05:56:34;;;;;;;;;;;;;;;13.54;69.76;99623.16;6200663;23;19942;-91
2023/10/24 05:58:59;;;;;;;;;;;;;;;13.48;69.71;99630.50;6223200;23;19974;-90
2023/10/24 06:01:26;;;;;;;;;;;;;;;13.46;70.02;99632.66;6200893;23;19907;-91
2023/10/24 06:04:06;;;;;;;;;;;;;;;13.49;70.50;99637.53;6249034;23;19917;-93
2023/10/24 06:06:47;;;;;;;;;;;;;;;13.62;69.87;99651.53;6222625;23;19907;-90
2023/10/24 06:15:18;;;;;;;;;;;;;;;13.98;67.97;99660.16;6250153;23;19914;-90
2023/10/24 06:17:43;;;;;;;;;;;;;;;14.07;68.19;99644.09;6198670;23;19945;-90
2023/10/24 06:20:11;;;;;;;;;;;;;;;14.19;68.14;99636.41;6198640;23;19914;-96
2023/10/24 06:22:37;;;;;;;;;;;;;;;14.30;68.38;99631.72;6199079;23;19908;-92
2023/10/24 06:25:02;;;;;;;;;;;;;;;14.34;68.22;99641.69;6249194;23;19981;-91
2023/10/24 06:27:30;;;;;;;;;;;;;;;14.45;67.57;99636.16;6196337;23;19912;-94
2023/10/24 06:29:56;;;;;;;;;;;;;;;14.60;67.07;99632.50;6221730;23;20325;-91
2023/10/24 06:32:21;;;;;;;;;;;;;;;14.67;67.15;99633.78;6225517;23;19911;-92
2023/10/24 06:34:47;;;;;;;;;;;;;;;14.69;66.71;99642.44;6198792;23;19908;-93
2023/10/24 06:37:13;;;;;;;;;;;;;;;14.89;66.17;99644.06;6249872;22;19908;-90
2023/10/24 06:39:39;;;;;;;;;;;;;;;15.01;65.79;99635.50;6222169;23;19914;-90
2023/10/24 06:42:04;;;;;;;;;;;;;;;15.23;64.90;99636.84;6246819;23;19908;-91
2023/10/24 06:44:30;;;;;;;;;;;;;;;15.33;64.85;99636.69;6247867;23;19969;-89
2023/10/24 06:46:56;;;;;;;;;;;;;;;15.36;64.96;99636.13;6197406;23;19914;-92
2023/10/24 06:49:21;;;;;;;;;;;;;;;15.38;64.84;99633.09;6198065;23;19911;-91
2023/10/24 06:51:46;;;;;;;;;;;;;;;15.45;64.34;99634.34;6249728;23;20327;-91
2023/10/24 06:54:12;;;;;;;;;;;;;;;15.53;64.49;99636.41;6197441;23;19915;-89
2023/10/24 06:56:37;;;;;;;;;;;;;;;15.67;64.13;99641.91;6198060;23;19993;-89
2023/10/24 06:59:02;;;;;;;;;;;;;;;15.81;63.29;99631.09;6248937;23;19916;-90
2023/10/24 07:01:28;;;;;;;;;;;;;;;15.96;62.21;99630.84;6198176;23;19914;-91
2023/10/24 07:03:54;;;;;;;;;;;;;;;15.94;61.66;99624.91;6197592;23;19908;-90
2023/10/24 07:06:19;;;;;;;;;;;;;;;16.14;61.33;99622.94;6249396;23;19907;-91
2023/10/24 07:08:47;;;;;;;;;;;;;;;16.28;61.43;99612.91;6197716;23;19914;-89
2023/10/24 07:11:15;;;;;;;;;;;;;;;16.43;61.45;99619.16;6224371;23;20312;-89
2023/10/24 07:13:49;;;;;;;;;;;;;;;16.54;61.31;99613.22;6200436;23;19987;-91
2023/10/24 07:16:15;;;;;;;;;;;;;;;16.64;60.87;99608.69;6251050;23;19908;-93
2023/10/24 07:18:40;;;;;;;;;;;;;;;16.73;60.94;99604.16;6221594;23;20329;-90
2023/10/24 07:21:08;;;;;;;;;;;;;;;16.84;60.54;99596.63;6247211;23;19908;-90
2023/10/24 07:23:33;;;;;;;;;;;;;;;16.97;59.95;99595.78;6196894;23;20333;-90
2023/10/24 07:25:59;;;;;;;;;;;;;;;17.07;59.63;99589.31;6196612;23;19915;-91
2023/10/24 07:28:34;;;;;;;;;;;;;;;17.22;59.08;99583.50;6196697;23;19912;-91
2023/10/24 07:31:22;;;;;;;;;;;;;;;17.40;58.05;99583.66;6200194;23;19977;-90
2023/10/24 07:33:50;;;;;;;;;;;;;;;17.53;57.61;99577.34;6249073;23;19957;-89
2023/10/24 07:36:16;;;;;;;;;;;;;;;17.53;58.12;99571.91;6222202;23;19956;-92
2023/10/24 07:38:41;;;;;;;;;;;;;;;17.62;57.52;99575.50;6215230;23;19916;-90
2023/10/24 07:41:06;;;;;;;;;;;;;;;17.78;57.19;99567.72;6277256;22;19907;-92
2023/10/24 07:43:32;;;;;;;;;;;;;;;17.87;57.23;99573.28;6247613;23;19915;-92
2023/10/24 07:45:57;;;;;;;;;;;;;;;17.93;56.88;99561.16;6252534;23;19907;-91
2023/10/24 07:48:23;;;;;;;;;;;;;;;18.02;56.47;99561.97;6251577;23;19911;-92
2023/10/24 07:50:51;;;;;;;;;;;;;;;18.09;56.26;99554.13;6248900;23;19955;-92
2023/10/24 07:53:33;;;;;;;;;;;;;;;18.26;56.21;99547.16;6249265;23;19965;-93
2023/10/24 07:55:58;;;;;;;;;;;;;;;18.37;55.77;99548.50;6270455;22;19913;-93
2023/10/24 07:58:23;;;;;;;;;;;;;;;18.53;55.38;99540.66;6223318;23;19954;-89
2023/10/24 08:01:03;;;;;;;;;;;;;;;18.67;55.30;99541.31;6224804;23;19938;-93
2023/10/24 08:03:36;;;;;;;;;;;;;;;18.80;54.89;99541.53;6245336;23;19908;-91
2023/10/24 08:06:03;;;;;;;;;;;;;;;18.93;54.33;99535.94;6223396;23;20306;-91
2023/10/24 08:08:29;;;;;;;;;;;;;;;19.08;53.22;99531.94;6224077;23;19908;-91
2023/10/24 08:10:57;;;;;;;;;;;;;;;19.19;53.07;99532.41;6248715;23;19929;-93
2023/10/24 08:13:22;;;;;;;;;;;;;;;19.27;53.31;99528.88;6246474;23;20016;-90
2023/10/24 08:15:52;;;;;;;;;;;;;;;19.38;53.35;99524.69;6248467;23;20305;-93
2023/10/24 08:18:20;;;;;;;;;;;;;;;19.47;53.31;99530.13;6251751;23;19915;-92
2023/10/24 08:20:46;;;;;;;;;;;;;;;19.59;53.05;99524.81;6247910;23;19907;-92
2023/10/24 08:23:15;;;;;;;;;;;;;;;19.76;51.82;99523.19;6247155;23;20326;-92
2023/10/24 08:25:43;;;;;;;;;;;;;;;19.86;51.25;99522.84;6270920;22;19919;-92
2023/10/24 08:28:08;;;;;;;;;;;;;;;19.96;50.91;99524.41;6247443;23;20034;-92
2023/10/24 08:30:42;;;;;;;;;;;;;;;20.01;50.65;99523.44;6273427;22;19911;-91
2023/10/24 08:33:08;;;;;;;;;;;;;;;20.08;50.46;99523.72;6224944;23;19911;-93
2023/10/24 08:35:36;;;;;;;;;;;;;;;20.16;50.23;99515.47;6247738;23;19962;-92
2023/10/24 08:38:03;;;;;;;;;;;;;;;20.29;49.95;99521.03;6273764;22;19987;-95
2023/10/24 08:40:39;;;;;;;;;;;;;;;20.37;49.21;99523.72;6201319;23;19907;-94
2023/10/24 08:43:10;;;;;;;;;;;;;;;20.52;49.50;99527.03;6195647;23;20354;-94
2023/10/24 08:45:56;;;;;;;;;;;;;;;20.63;49.31;99522.00;6117283;23;20128;-95
2023/10/24 08:48:25;;;;;;;;;;;;;;;20.64;48.07;99520.88;6181876;23;19912;-93
2023/10/24 08:51:03;;;;;;;;;;;;;;;;;;;;;
2023/10/24 08:53:32;;;;;;;;;;;;;;;20.83;46.79;99510.25;6191155;23;19987;-93
2023/10/24 08:56:06;;;;;;;;;;;;;;;20.93;46.97;99511.81;6171055;23;19912;-91
2023/10/24 08:58:57;;;;;;;;;;;;;;;21.05;45.98;99511.88;6174931;23;20328;-93
2023/10/24 09:01:36;;;;;;;;;;;;;;;21.16;45.49;99504.84;6196300;23;19928;-93
2023/10/24 09:04:27;;;;;;;;;;;;;;;21.30;45.04;99498.28;6193469;23;19943;-92
2023/10/24 09:06:52;;;;;;;;;;;;;;;21.45;44.43;99488.66;6199530;23;19919;-93
2023/10/24 09:13:13;;;;;;;;;;;;;;;21.64;44.78;99472.47;6209401;23;19912;-90
2023/10/24 09:15:22;;;;;;;;;;;;;;;21.78;44.12;99464.72;6219958;23;19934;-93
2023/10/24 09:17:47;;;;;;;;;;;;;;;21.89;43.66;99467.03;6225994;23;19982;-91
2023/10/24 09:20:15;;;;;;;;;;;;;;;21.98;44.28;99471.25;6199638;23;19912;-91
2023/10/24 09:23:00;;;;;;;;;;;;;;;;;;;;;
2023/10/24 09:25:49;;;;;;;;;;;;;;;22.12;44.04;99459.97;6227436;23;19959;-92
2023/10/24 09:28:33;;;;;;;;;;;;;;;;;;;;;
2023/10/24 09:31:18;;;;;;;;;;;;;;;;;;;;;
2023/10/24 09:33:46;;;;;;;;;;;;;;;22.41;42.22;99447.13;6232864;23;19970;-93
2023/10/24 09:36:27;;;;;;;;;;;;;;;22.48;41.62;99441.06;6203084;23;19911;-96
2023/10/24 09:38:54;;;;;;;;;;;;;;;22.51;41.01;99441.16;6244319;23;19923;-91
2023/10/24 09:41:20;;;;;;;;;;;;;;;22.56;40.97;99437.41;6253890;23;19915;-90
2023/10/24 09:44:14;;;;;;;;;;;;;;;22.64;41.96;99428.22;6225494;23;19943;-90
2023/10/24 09:46:50;;;;;;;;;;;;;;;22.66;40.21;99425.94;6251064;22;20338;-92
2023/10/24 09:52:19;;;;;;;;;;;;;;;22.79;39.73;99415.69;6239167;23;19912;-95
2023/10/24 09:54:47;;;;;;;;;;;;;;;22.85;39.75;99403.31;6248796;23;19912;-94
2023/10/24 09:57:20;;;;;;;;;;;;;;;22.94;39.53;99405.91;6225076;23;19986;-94
2023/10/24 10:00:03;;;;;;;;;;;;;;;;;;;;;
2023/10/24 10:02:35;;;;;;;;;;;;;;;23.07;39.65;99401.97;6253985;23;19927;-92
2023/10/24 10:05:11;;;;;;;;;;;;;;;23.14;39.48;99393.94;6254411;23;19911;-93
2023/10/24 10:07:36;;;;;;;;;;;;;;;23.16;39.04;99391.63;6229130;23;19907;-91
2023/10/24 10:10:05;;;;;;;;;;;;;;;23.23;39.16;99388.25;6228516;23;20337;-93
2023/10/24 10:12:39;;;;;;;;;;;;;;;23.26;38.68;99387.53;6255434;22;19914;-93
2023/10/24 10:15:29;;;;;;;;;;;;;;;23.37;38.29;99388.63;6257128;23;19918;-95
2023/10/24 10:18:20;;;;;;;;;;;;;;;23.48;38.54;99388.09;6249461;23;19985;-94
2023/10/24 10:24:49;;;;;;;;;;;;;;;23.71;36.91;99385.53;6113725;23;19909;-93
2023/10/24 10:30:34;;;;;;;;;;;;;;;23.89;35.98;99373.03;6249342;23;19914;-96
2023/10/24 10:33:09;;;;;;;;;;;;;;;23.95;34.71;99368.03;6248217;23;19908;-91
2023/10/24 10:35:46;;;;;;;;;;;;;;;23.98;34.34;99362.59;6248748;22;19927;-91
2023/10/24 10:38:11;;;;;;;;;;;;;;;24.04;34.40;99365.88;6249662;22;19916;-90
2023/10/24 10:40:48;;;;;;;;;;;;;;;24.15;34.11;99358.66;6245555;23;20346;-92
2023/10/24 10:43:24;;;;;;;;;;;;;;;24.22;33.71;99358.03;6249928;23;19931;-90
2023/10/24 10:45:53;;;;;;;;;;;;;;;24.33;33.61;99359.03;6225943;23;19908;-90
2023/10/24 10:48:18;;;;;;;;;;;;;;;24.45;33.45;99349.84;6200702;23;19907;-91
2023/10/24 10:50:44;;;;;;;;;;;;;;;24.52;34.18;99344.50;6221106;23;19986;-89
2023/10/24 10:53:14;;;;;;;;;;;;;;;24.60;33.63;99346.25;6197941;23;20327;-88
2023/10/24 10:55:51;;;;;;;;;;;;;;;24.68;31.59;99344.44;6244039;23;20361;-89
2023/10/24 10:58:31;;;;;;;;;;;;;;;24.69;31.92;99342.47;6220050;23;19914;-92
2023/10/24 11:00:59;;;;;;;;;;;;;;;24.69;32.31;99342.47;6221396;23;19908;-92
2023/10/24 11:03:24;;;;;;;;;;;;;;;24.67;32.10;99340.06;6248896;23;20395;-90
2023/10/24 11:05:52;;;;;;;;;;;;;;;24.66;32.84;99344.00;6249953;23;19908;-89
2023/10/24 11:08:26;;;;;;;;;;;;;;;24.68;32.32;99338.94;6195848;23;19914;-91
2023/10/24 11:10:57;;;;;;;;;;;;;;;24.67;31.91;99333.78;6218059;23;19918;-91
2023/10/24 11:13:32;;;;;;;;;;;;;;;24.63;32.04;99332.91;6222105;23;19948;-95
2023/10/24 11:16:21;;;;;;;;;;;;;;;24.62;32.30;99323.84;6248780;23;19918;-95
2023/10/24 11:18:48;;;;;;;;;;;;;;;24.62;33.05;99323.84;6228084;23;19908;-94
2023/10/24 11:21:14;;;;;;;;;;;;;;;24.63;33.33;99310.88;6201622;23;20317;-89
2023/10/24 11:23:42;;;;;;;;;;;;;;;24.67;32.51;99309.00;6222109;23;19965;-92
2023/10/24 11:26:08;;;;;;;;;;;;;;;24.68;32.81;99302.34;6252266;23;19915;-92
2023/10/24 11:28:35;;;;;;;;;;;;;;;24.70;32.95;99300.03;6198158;23;19911;-91
2023/10/24 11:31:17;;;;;;;;;;;;;;;24.72;34.02;99294.94;6200353;23;19955;-90
2023/10/24 11:33:42;;;;;;;;;;;;;;;24.70;33.85;99289.78;6199049;23;19908;-92
2023/10/24 11:36:08;;;;;;;;;;;;;;;24.71;34.39;99282.31;6196180;23;19918;-89
2023/10/24 11:38:33;;;;;;;;;;;;;;;24.73;34.36;99282.75;6247269;22;19920;-92
2023/10/24 11:40:58;;;;;;;;;;;;;;;24.75;34.44;99275.72;6197011;23;19912;-90
2023/10/24 11:43:32;;;;;;;;;;;;;;;24.77;34.46;99284.41;6220317;23;19904;-90
2023/10/24 11:45:58;;;;;;;;;;;;;;;24.77;34.67;99273.38;6222827;23;19914;-89
2023/10/24 11:48:23;;;;;;;;;;;;;;;24.72;34.86;99278.41;6196993;23;19912;-92
2023/10/24 11:50:49;;;;;;;;;;;;;;;24.72;34.87;99279.22;6197572;23;19908;-92
2023/10/24 11:53:21;;;;;;;;;;;;;;;24.76;34.34;99274.56;6198429;23;20384;-92
2023/10/24 11:55:52;;;;;;;;;;;;;;;24.75;34.85;99281.22;6198799;23;19912;-93
2023/10/24 11:58:20;;;;;;;;;;;;;;;24.73;34.81;99275.28;6197759;23;19946;-96
2023/10/24 12:00:45;;;;;;;;;;;;;;;24.74;34.71;99267.84;6223742;23;19908;-91
2023/10/24 12:03:11;;;;;;;;;;;;;;;24.74;34.47;99265.88;6199669;23;19914;-91
2023/10/24 12:05:39;;;;;;;;;;;;;;;24.73;33.67;99256.00;6198676;23;19946;-93
2023/10/24 12:08:04;;;;;;;;;;;;;;;24.69;33.75;99260.66;6199507;23;19986;-92
2023/10/24 12:10:53;;;;;;;;;;;;;;;24.70;33.88;99261.47;6200592;23;19908;-92
2023/10/24 12:13:18;;;;;;;;;;;;;;;24.73;33.46;99256.00;6223469;23;19911;-91
2023/10/24 12:15:58;;;;;;;;;;;;;;;24.73;33.60;99246.97;6248548;23;19911;-94
2023/10/24 12:18:38;;;;;;;;;;;;;;;24.73;33.33;99245.00;6201933;23;19918;-91
2023/10/24 12:21:03;;;;;;;;;;;;;;;24.75;33.81;99241.88;6200968;23;19982;-91
2023/10/24 12:23:49;;;;;;;;;;;;;;;;;;;;;
2023/10/24 12:26:24;;;;;;;;;;;;;;;24.80;33.87;99233.31;6223932;23;19920;-90
2023/10/24 12:28:54;;;;;;;;;;;;;;;24.88;34.03;99234.22;6226009;23;19908;-95
2023/10/24 12:31:21;;;;;;;;;;;;;;;24.91;34.09;99234.28;6200642;23;19908;-93
2023/10/24 12:34:26;;;;;;;;;;;;;;;;;;;;;
2023/10/24 12:43:29;;;;;;;;;;;;;;;25.19;33.16;99214.66;6188732;22;19978;-92
2023/10/24 12:46:03;;;;;;;;;;;;;;;25.25;32.60;99214.38;6220070;23;19911;-95
2023/10/24 12:48:28;;;;;;;;;;;;;;;25.30;32.99;99214.84;6195249;23;20255;-93
2023/10/24 12:51:21;;;;;;;;;;;;;;;25.39;33.26;99209.06;6163428;23;20343;-92
2023/10/24 13:26:34;;;;;;;;;;;;;;;25.84;32.02;99184.41;6219480;22;19947;-93
2023/10/24 13:31:44;;;;;;;;;;;;;;;25.86;32.19;99180.13;6123124;23;19917;-93
2023/10/24 13:34:14;;;;;;;;;;;;;;;25.83;31.33;99171.81;6115487;23;19974;-93
2023/10/24 13:36:40;;;;;;;;;;;;;;;25.83;31.76;99183.63;6139178;23;20333;-91
2023/10/24 13:39:10;;;;;;;;;;;;;;;25.91;31.04;99171.53;6239169;23;19908;-91
2023/10/24 13:41:53;;;;;;;;;;;;;;;25.81;30.99;99166.66;6209500;23;19911;-94
2023/10/24 13:44:28;;;;;;;;;;;;;;;25.80;30.73;99167.84;6236176;23;19951;-93
2023/10/24 13:46:56;;;;;;;;;;;;;;;25.75;30.94;99160.72;6206913;23;19907;-91
2023/10/24 13:49:34;;;;;;;;;;;;;;;;;;;;;
2023/10/24 13:52:18;;;;;;;;;;;;;;;25.68;31.46;99168.88;6229199;23;19943;-91
2023/10/24 13:54:45;;;;;;;;;;;;;;;25.66;31.34;99157.44;6229731;23;19908;-93
2023/10/24 13:57:21;;;;;;;;;;;;;;;25.59;31.94;99147.09;6227500;23;19912;-92
2023/10/24 13:59:46;;;;;;;;;;;;;;;25.54;32.00;99150.19;6204775;23;19912;-95
2023/10/24 14:02:53;;;;;;;;;;;;;;;;;;;;;
2023/10/24 14:05:08;;;;;;;;;;;;;;;25.42;31.95;99150.41;6255040;23;19915;-94
2023/10/24 14:07:44;;;;;;;;;;;;;;;25.35;32.07;99148.38;6236649;23;19955;-95
2023/10/24 14:10:32;;;;;;;;;;;;;;;25.27;31.79;99149.44;6212326;23;19918;-94
2023/10/24 14:12:57;;;;;;;;;;;;;;;25.25;32.17;99145.47;6234297;23;19912;-93
2023/10/24 14:15:23;;;;;;;;;;;;;;;25.15;31.69;99144.94;6220926;23;19982;-89
2023/10/24 14:17:48;;;;;;;;;;;;;;;25.14;32.00;99135.06;6220090;23;19908;-89